Aérodrome :
LOGIN :

S'inscrire | Disclaimer

   EN    FR    IT 

 










Légende :    VFR   VFR Marginal   IFR   IFR Intensif   IFR Très Intensif
Visi : 
Plafond : 
>= 8 km
>= 3000ft
5 à 8 km
1000 à 3000 ft
1500m à 5 km
500 à 1000 ft
800 à 1500m
200 à 500 ft
< 800m
< 200 ft
Symboles :   Orages  Brouillard  Fortes neiges  Fortes précipitations  Vent > 20 kt
SIGMETs :   Divers  Orages  Givrage  Turbulence  Onde Orograph.  Cendres Volcan.






- Altitude de l'aérodrome : 3 ft
- Code IATA : DHR


EHKD - Den Helder De Kooy

DERNIER METAR :
  • 091825Z AUTO 18006KT 3500 BR NCD 00/M00 Q1005 YLO

METARs EXPIRÉS :
  • 091757Z AUTO 19007KT 3600 R21/P3000N BR SCT040 BKN045 01/M00 Q1005 YLO NOSIG
  • 091743Z AUTO 18008KT 3900 BR SCT039 BKN043 OVC051 01/00 Q1005 GRN NOSIG
  • 091730Z AUTO 18009KT 3900 BR SCT043 OVC053 01/00 Q1005 GRN NOSIG
  • 091714Z AUTO 18008KT 3400 R21/P3000U BR FEW055 01/00 Q1005 YLO BECMG 2500 BR
  • 091655Z AUTO 19006KT 2800 R21/2700N BR FEW042 01/M00 Q1005 YLO BECMG 2500 BR
  • 091625Z AUTO 18007KT 3300 R21/P3000U BR FEW041 BKN051 01/00 Q1005 YLO BECMG 2500 BR
  • 091558Z AUTO 19006KT 2900 R21/2900N BR NCD 01/00 Q1005 YLO BECMG 2500 BR

TAF TAF EHKD
Valide du 09 à 14h jusqu'au 10 à 02h UTC


091339Z 0914/1002 18006KT 8000 FEW040
BECMG 0916/0919 3500 BR
PROB40 0920/1002 0600 FG FZFG BKN001



MET'MAP, la Météo Aéronautique d'un coup d'oeil ! - Copyright ORBIFLY Décembre 2007 - Disclaimer

ORBIFLY MET'MAP TEAM :

Programmation & Développement : Alexandra Zaïnal
Sur une idée originale de : Baudouin d'Aumeries
Soutien technique & logistique : Manuel Goepfert
Assistance : Marc-Olivier Méhu




SOURCES & CREDITS :

   NOAA